Time;durP1;ratioP1;P1;durP2;ratioP2;P2;SDS_P1;SDS_P2;PMS_P1;PMS_P2;Temp;Humidity;BMP_temperature;BMP_pressure;BME280_temperature;BME280_humidity;BME280_pressure;Samples;Min_cycle;Max_cycle;Signal;HPM_P1;HPM_P2
2021/03/13 00:00:38;;;;;;;1999.90;999.90;;;;;;;;;;5066807;28;20063;-78
2021/03/13 00:03:04;;;;;;;1999.90;999.90;;;;;;;;;;5056455;28;20089;-78
2021/03/13 00:05:31;;;;;;;1999.90;999.90;;;;;;;;;;5064557;28;20041;-78
2021/03/13 00:07:56;;;;;;;1999.90;999.90;;;;;;;;;;5065321;28;20037;-77
2021/03/13 00:10:22;;;;;;;1999.90;999.90;;;;;;;;;;5065514;28;20045;-78
2021/03/13 00:12:47;;;;;;;1999.90;999.90;;;;;;;;;;5066597;28;20024;-78
2021/03/13 00:15:14;;;;;;;1999.90;999.90;;;;;;;;;;5065201;28;20028;-78
2021/03/13 00:17:43;;;;;;;1999.90;999.90;;;;;;;;;;5062142;28;20020;-78
2021/03/13 00:20:09;;;;;;;1999.90;999.90;;;;;;;;;;5054889;28;20045;-77
2021/03/13 00:22:35;;;;;;;1999.90;999.90;;;;;;;;;;5064076;28;20035;-78
2021/03/13 00:25:00;;;;;;;1999.90;999.90;;;;;;;;;;5056015;28;20029;-78
2021/03/13 00:27:25;;;;;;;1999.90;999.90;;;;;;;;;;5068280;28;20469;-78
2021/03/13 00:29:51;;;;;;;1999.90;999.90;;;;;;;;;;5065166;28;20040;-78
2021/03/13 00:32:16;;;;;;;1999.90;999.90;;;;;;;;;;5060863;28;20021;-78
2021/03/13 00:34:42;;;;;;;1999.90;999.90;;;;;;;;;;5067113;28;20036;-78
2021/03/13 00:37:07;;;;;;;1999.90;999.90;;;;;;;;;;5065287;28;20024;-78
2021/03/13 00:39:32;;;;;;;1999.90;999.90;;;;;;;;;;5069322;28;20043;-78
2021/03/13 00:41:58;;;;;;;1999.90;999.90;;;;;;;;;;5065999;28;20035;-77
2021/03/13 00:44:23;;;;;;;1999.90;999.90;;;;;;;;;;5059637;28;20032;-78
2021/03/13 00:46:48;;;;;;;1999.90;999.90;;;;;;;;;;5062159;28;20412;-78
2021/03/13 00:49:14;;;;;;;1999.90;999.90;;;;;;;;;;5064462;28;20119;-78
2021/03/13 00:51:40;;;;;;;1999.90;999.90;;;;;;;;;;5066241;28;20025;-78
2021/03/13 00:54:05;;;;;;;1999.90;999.90;;;;;;;;;;5065354;28;20036;-77
2021/03/13 00:56:31;;;;;;;1999.90;999.90;;;;;;;;;;5065840;28;20062;-78
2021/03/13 00:58:57;;;;;;;1999.90;999.90;;;;;;;;;;5059950;28;20029;-78
2021/03/13 01:01:22;;;;;;;1999.90;999.90;;;;;;;;;;5043166;28;20040;-78
2021/03/13 01:03:48;;;;;;;1999.90;999.90;;;;;;;;;;5065796;28;20033;-78
2021/03/13 01:06:13;;;;;;;1999.90;999.90;;;;;;;;;;5062766;28;20056;-78
2021/03/13 01:08:40;;;;;;;1999.90;999.90;;;;;;;;;;5060888;28;20021;-78
2021/03/13 01:11:12;;;;;;;1999.90;999.90;;;;;;;;;;5058672;28;20020;-78
2021/03/13 01:13:43;;;;;;;1999.90;999.90;;;;;;;;;;5062071;28;20429;-78
2021/03/13 01:16:09;;;;;;;1999.90;999.90;;;;;;;;;;5062609;28;20067;-78
2021/03/13 01:18:35;;;;;;;1999.90;999.90;;;;;;;;;;5064782;28;20028;-78
2021/03/13 01:21:03;;;;;;;1999.90;999.90;;;;;;;;;;5063258;28;20087;-78
2021/03/13 01:23:37;;;;;;;1999.90;999.90;;;;;;;;;;5060781;28;20135;-79
2021/03/13 01:26:04;;;;;;;1999.90;999.90;;;;;;;;;;5065234;28;20024;-78
2021/03/13 01:28:29;;;;;;;1999.90;999.90;;;;;;;;;;5064691;28;20028;-78
2021/03/13 01:30:55;;;;;;;1999.90;999.90;;;;;;;;;;5063744;28;20029;-78
2021/03/13 01:33:20;;;;;;;1999.90;999.90;;;;;;;;;;5062412;28;20025;-78
2021/03/13 01:35:46;;;;;;;1999.90;999.90;;;;;;;;;;5065333;28;20098;-78
2021/03/13 01:38:12;;;;;;;1999.90;999.90;;;;;;;;;;5062041;28;20039;-78
2021/03/13 01:40:39;;;;;;;1999.90;999.90;;;;;;;;;;5061469;28;20083;-78
2021/03/13 01:43:05;;;;;;;1999.90;999.90;;;;;;;;;;5060845;28;20024;-78
2021/03/13 01:45:30;;;;;;;1999.90;999.90;;;;;;;;;;5059649;28;20031;-78
2021/03/13 01:47:58;;;;;;;1999.90;999.90;;;;;;;;;;5060529;28;20456;-78
2021/03/13 01:50:25;;;;;;;1999.90;999.90;;;;;;;;;;5060142;28;20033;-77
2021/03/13 01:52:51;;;;;;;1999.90;999.90;;;;;;;;;;5060177;28;20393;-77
2021/03/13 01:55:20;;;;;;;1999.90;999.90;;;;;;;;;;5061613;28;20511;-77
2021/03/13 01:57:52;;;;;;;1999.90;999.90;;;;;;;;;;5063342;28;20541;-78
2021/03/13 02:00:23;;;;;;;1999.90;999.90;;;;;;;;;;5062448;28;20051;-78
2021/03/13 02:02:53;;;;;;;1999.90;999.90;;;;;;;;;;5062714;28;20388;-79
2021/03/13 02:05:24;;;;;;;1999.90;999.90;;;;;;;;;;5058481;28;20066;-78
2021/03/13 02:07:55;;;;;;;1999.90;999.90;;;;;;;;;;5063280;28;20024;-78
2021/03/13 02:10:33;;;;;;;1999.90;999.90;;;;;;;;;;5065489;28;20040;-78
2021/03/13 02:13:03;;;;;;;1999.90;999.90;;;;;;;;;;5064837;28;20020;-77
2021/03/13 02:15:48;;;;;;;1999.90;999.90;;;;;;;;;;5062680;28;20579;-78
2021/03/13 02:18:20;;;;;;;1999.90;999.90;;;;;;;;;;5061709;28;20039;-78
2021/03/13 02:21:04;;;;;;;1999.90;999.90;;;;;;;;;;5054254;28;20330;-78
2021/03/13 02:23:38;;;;;;;1999.90;999.90;;;;;;;;;;5048599;28;20025;-79
2021/03/13 02:26:46;;;;;;;1999.90;999.90;;;;;;;;;;5065535;28;20028;-77
2021/03/13 02:29:42;;;;;;;1999.90;999.90;;;;;;;;;;5048338;28;20029;-78
2021/03/13 02:32:19;;;;;;;1999.90;999.90;;;;;;;;;;5061885;28;20029;-78
2021/03/13 02:34:46;;;;;;;1999.90;999.90;;;;;;;;;;5060674;28;20572;-78
2021/03/13 02:37:19;;;;;;;1999.90;999.90;;;;;;;;;;5048953;28;20115;-78
2021/03/13 02:39:49;;;;;;;1999.90;999.90;;;;;;;;;;5064204;28;20071;-78
2021/03/13 02:42:15;;;;;;;1999.90;999.90;;;;;;;;;;5057511;28;20067;-77
2021/03/13 02:44:43;;;;;;;1999.90;999.90;;;;;;;;;;5057262;28;20067;-78
2021/03/13 02:47:16;;;;;;;1999.90;999.90;;;;;;;;;;5063945;28;20021;-79
2021/03/13 02:49:49;;;;;;;1999.90;999.90;;;;;;;;;;5067599;28;20127;-78
2021/03/13 02:52:20;;;;;;;1999.90;999.90;;;;;;;;;;5062476;28;20457;-78
2021/03/13 02:54:50;;;;;;;1999.90;999.90;;;;;;;;;;5064362;28;20037;-78
2021/03/13 02:57:19;;;;;;;1999.90;999.90;;;;;;;;;;5057591;28;20069;-78
2021/03/13 02:59:45;;;;;;;1999.90;999.90;;;;;;;;;;5059892;28;20033;-79
2021/03/13 03:02:13;;;;;;;1999.90;999.90;;;;;;;;;;5053937;28;20024;-80
2021/03/13 03:04:40;;;;;;;1999.90;999.90;;;;;;;;;;5060318;28;20040;-78
2021/03/13 03:07:06;;;;;;;1999.90;999.90;;;;;;;;;;5063393;28;20434;-77
2021/03/13 03:09:32;;;;;;;1999.90;999.90;;;;;;;;;;5063267;28;20025;-77
2021/03/13 03:11:59;;;;;;;1999.90;999.90;;;;;;;;;;5062873;28;20025;-77
2021/03/13 03:14:26;;;;;;;1999.90;999.90;;;;;;;;;;5063383;28;20029;-77
2021/03/13 03:16:53;;;;;;;1999.90;999.90;;;;;;;;;;5054874;28;20017;-79
2021/03/13 03:19:24;;;;;;;1999.90;999.90;;;;;;;;;;5063934;28;20534;-79
2021/03/13 03:21:59;;;;;;;1999.90;999.90;;;;;;;;;;5062008;28;20063;-78
2021/03/13 03:24:25;;;;;;;1999.90;999.90;;;;;;;;;;5063927;28;20037;-78
2021/03/13 03:26:51;;;;;;;1999.90;999.90;;;;;;;;;;5058896;28;20497;-78
2021/03/13 03:29:18;;;;;;;1999.90;999.90;;;;;;;;;;5061693;28;20036;-77
2021/03/13 03:31:43;;;;;;;1999.90;999.90;;;;;;;;;;5052011;28;20097;-77
2021/03/13 03:34:11;;;;;;;1999.90;999.90;;;;;;;;;;5066784;28;20035;-78
2021/03/13 03:36:40;;;;;;;1999.90;999.90;;;;;;;;;;5055983;28;20078;-78
2021/03/13 03:39:05;;;;;;;1999.90;999.90;;;;;;;;;;5069436;28;20041;-78
2021/03/13 03:41:35;;;;;;;1999.90;999.90;;;;;;;;;;5058835;28;20028;-78
2021/03/13 03:44:08;;;;;;;1999.90;999.90;;;;;;;;;;5061657;28;20103;-78
2021/03/13 03:46:36;;;;;;;1999.90;999.90;;;;;;;;;;5063564;28;20081;-78
2021/03/13 03:49:04;;;;;;;1999.90;999.90;;;;;;;;;;5060675;28;20013;-79
2021/03/13 03:51:34;;;;;;;1999.90;999.90;;;;;;;;;;5062802;28;20029;-77
2021/03/13 03:54:12;;;;;;;1999.90;999.90;;;;;;;;;;5055287;28;20025;-78
2021/03/13 03:56:41;;;;;;;1999.90;999.90;;;;;;;;;;5058150;28;20097;-78
2021/03/13 03:59:17;;;;;;;1999.90;999.90;;;;;;;;;;5058689;28;20062;-78
2021/03/13 04:01:47;;;;;;;1999.90;999.90;;;;;;;;;;5062757;28;20093;-78
2021/03/13 04:04:14;;;;;;;1999.90;999.90;;;;;;;;;;5061042;28;20068;-78
2021/03/13 04:06:39;;;;;;;1999.90;999.90;;;;;;;;;;5066699;28;20404;-78
2021/03/13 04:09:06;;;;;;;1999.90;999.90;;;;;;;;;;5061514;28;20055;-78
2021/03/13 04:11:32;;;;;;;1999.90;999.90;;;;;;;;;;5064230;28;20020;-78
2021/03/13 04:13:58;;;;;;;1999.90;999.90;;;;;;;;;;5062006;28;20036;-78
2021/03/13 04:16:24;;;;;;;1999.90;999.90;;;;;;;;;;5056470;28;20496;-78
2021/03/13 04:18:49;;;;;;;1999.90;999.90;;;;;;;;;;5058165;28;20025;-76
2021/03/13 04:21:15;;;;;;;1999.90;999.90;;;;;;;;;;5055310;28;20032;-76
2021/03/13 04:23:47;;;;;;;1999.90;999.90;;;;;;;;;;5057988;28;20469;-77
2021/03/13 04:26:14;;;;;;;1999.90;999.90;;;;;;;;;;5059028;28;20459;-77
2021/03/13 04:28:39;;;;;;;1999.90;999.90;;;;;;;;;;5061076;28;20086;-77
2021/03/13 04:31:05;;;;;;;1999.90;999.90;;;;;;;;;;5061132;28;20057;-76
2021/03/13 04:33:31;;;;;;;1999.90;999.90;;;;;;;;;;5065790;28;20025;-77
2021/03/13 04:35:56;;;;;;;1999.90;999.90;;;;;;;;;;5066063;28;20401;-77
2021/03/13 04:38:22;;;;;;;1999.90;999.90;;;;;;;;;;5065286;28;20023;-77
2021/03/13 04:40:49;;;;;;;1999.90;999.90;;;;;;;;;;5065210;28;20499;-77
2021/03/13 04:43:16;;;;;;;1999.90;999.90;;;;;;;;;;5060583;28;20017;-78
2021/03/13 04:45:43;;;;;;;1999.90;999.90;;;;;;;;;;5062900;28;20029;-77
2021/03/13 04:48:08;;;;;;;1999.90;999.90;;;;;;;;;;5068193;28;20071;-78
2021/03/13 04:50:34;;;;;;;1999.90;999.90;;;;;;;;;;5054239;28;20064;-77
2021/03/13 04:52:59;;;;;;;1999.90;999.90;;;;;;;;;;5061661;28;20016;-78
2021/03/13 04:55:25;;;;;;;1999.90;999.90;;;;;;;;;;5059185;28;20174;-77
2021/03/13 04:57:50;;;;;;;1999.90;999.90;;;;;;;;;;5066374;28;20614;-78
2021/03/13 05:00:16;;;;;;;1999.90;999.90;;;;;;;;;;5055781;28;20036;-78
2021/03/13 05:02:42;;;;;;;1999.90;999.90;;;;;;;;;;5059747;28;20199;-78
2021/03/13 05:05:08;;;;;;;1999.90;999.90;;;;;;;;;;5063830;28;20451;-78
2021/03/13 05:07:33;;;;;;;1999.90;999.90;;;;;;;;;;5056905;28;20028;-78
2021/03/13 05:09:59;;;;;;;1999.90;999.90;;;;;;;;;;5062969;28;20074;-78
2021/03/13 05:12:24;;;;;;;1999.90;999.90;;;;;;;;;;5052775;28;20461;-78
2021/03/13 05:14:50;;;;;;;1999.90;999.90;;;;;;;;;;5064155;28;20036;-78
2021/03/13 05:17:15;;;;;;;1999.90;999.90;;;;;;;;;;5054927;28;20039;-78
2021/03/13 05:19:40;;;;;;;1999.90;999.90;;;;;;;;;;5060625;28;20036;-78
2021/03/13 05:22:07;;;;;;;1999.90;999.90;;;;;;;;;;5061075;28;20028;-78
2021/03/13 05:24:32;;;;;;;1999.90;999.90;;;;;;;;;;5058807;28;20488;-78
2021/03/13 05:26:58;;;;;;;1999.90;999.90;;;;;;;;;;5058030;28;20039;-79
2021/03/13 05:29:23;;;;;;;1999.90;999.90;;;;;;;;;;5062186;28;20024;-78
2021/03/13 05:31:49;;;;;;;1999.90;999.90;;;;;;;;;;5064564;28;20021;-79
2021/03/13 05:34:14;;;;;;;1999.90;999.90;;;;;;;;;;5062582;28;20078;-79
2021/03/13 05:36:39;;;;;;;1999.90;999.90;;;;;;;;;;5056146;28;20016;-78
2021/03/13 05:39:05;;;;;;;1999.90;999.90;;;;;;;;;;5061424;28;20025;-78
2021/03/13 05:41:31;;;;;;;1999.90;999.90;;;;;;;;;;5041250;28;20488;-79
2021/03/13 05:43:59;;;;;;;1999.90;999.90;;;;;;;;;;5058144;28;20032;-79
2021/03/13 05:46:24;;;;;;;1999.90;999.90;;;;;;;;;;5051302;28;20021;-79
2021/03/13 05:48:49;;;;;;;1999.90;999.90;;;;;;;;;;5065721;28;20037;-79
2021/03/13 05:51:15;;;;;;;1999.90;999.90;;;;;;;;;;5057361;28;20043;-78
2021/03/13 05:53:41;;;;;;;1999.90;999.90;;;;;;;;;;5060179;28;20033;-81
2021/03/13 05:56:09;;;;;;;1999.90;999.90;;;;;;;;;;5057165;28;20025;-80
2021/03/13 05:58:38;;;;;;;1999.90;999.90;;;;;;;;;;5068067;28;20043;-80
2021/03/13 06:01:05;;;;;;;1999.90;999.90;;;;;;;;;;5063970;28;20494;-80
2021/03/13 06:03:34;;;;;;;1999.90;999.90;;;;;;;;;;5058312;28;20032;-81
2021/03/13 06:06:01;;;;;;;1999.90;999.90;;;;;;;;;;5064314;28;20053;-81
2021/03/13 06:08:26;;;;;;;1999.90;999.90;;;;;;;;;;5059130;28;20079;-81
2021/03/13 06:10:51;;;;;;;1999.90;999.90;;;;;;;;;;5064973;28;20028;-81
2021/03/13 06:13:17;;;;;;;1999.90;999.90;;;;;;;;;;5054740;28;20029;-81
2021/03/13 06:15:44;;;;;;;1999.90;999.90;;;;;;;;;;5061039;28;20115;-81
2021/03/13 06:18:09;;;;;;;1999.90;999.90;;;;;;;;;;5060678;28;20480;-80
2021/03/13 06:20:36;;;;;;;1999.90;999.90;;;;;;;;;;5060293;28;20036;-80
2021/03/13 06:23:03;;;;;;;1999.90;999.90;;;;;;;;;;5060621;28;20029;-81
2021/03/13 06:25:29;;;;;;;1999.90;999.90;;;;;;;;;;5063413;28;20025;-81
2021/03/13 06:28:11;;;;;;;1999.90;999.90;;;;;;;;;;5063097;28;20032;-80
2021/03/13 06:30:38;;;;;;;1999.90;999.90;;;;;;;;;;5066867;28;20044;-80
2021/03/13 06:33:20;;;;;;;1999.90;999.90;;;;;;;;;;5060468;28;20021;-80
2021/03/13 06:35:46;;;;;;;1999.90;999.90;;;;;;;;;;5056706;28;20072;-81
2021/03/13 06:38:31;;;;;;;1999.90;999.90;;;;;;;;;;5063040;28;20063;-81
2021/03/13 06:40:57;;;;;;;1999.90;999.90;;;;;;;;;;5057948;28;20048;-80
2021/03/13 06:43:27;;;;;;;1999.90;999.90;;;;;;;;;;5056832;28;20476;-80
2021/03/13 06:45:53;;;;;;;1999.90;999.90;;;;;;;;;;5060988;28;20028;-79
2021/03/13 06:48:27;;;;;;;1999.90;999.90;;;;;;;;;;5052121;28;20017;-79
2021/03/13 06:50:53;;;;;;;1999.90;999.90;;;;;;;;;;5058301;28;20377;-80
2021/03/13 06:53:19;;;;;;;1999.90;999.90;;;;;;;;;;5064113;28;20552;-80
2021/03/13 06:55:44;;;;;;;1999.90;999.90;;;;;;;;;;5066598;28;20111;-79
2021/03/13 06:58:12;;;;;;;1999.90;999.90;;;;;;;;;;5061483;28;20590;-79
2021/03/13 07:00:39;;;;;;;1999.90;999.90;;;;;;;;;;5054220;28;20052;-79
2021/03/13 07:03:07;;;;;;;283.25;252.43;;;;;;;;;;5056397;28;20139;-81
2021/03/13 07:05:33;;;;;;;1999.90;999.90;;;;;;;;;;5059410;28;20114;-81
2021/03/13 07:07:58;;;;;;;288.85;249.00;;;;;;;;;;5067131;28;20024;-81
2021/03/13 07:10:27;;;;;;;290.35;251.60;;;;;;;;;;5058909;28;20064;-82
2021/03/13 07:12:53;;;;;;;292.77;240.82;;;;;;;;;;5053948;28;20013;-80
2021/03/13 07:15:26;;;;;;;284.95;248.60;;;;;;;;;;5058757;28;20047;-80
2021/03/13 07:17:56;;;;;;;277.67;247.15;;;;;;;;;;5056662;28;20096;-80
2021/03/13 07:20:22;;;;;;;282.50;246.40;;;;;;;;;;5061444;28;20047;-81
2021/03/13 07:22:51;;;;;;;277.92;247.57;;;;;;;;;;5065961;28;20021;-81
2021/03/13 07:25:18;;;;;;;267.35;239.07;;;;;;;;;;5061425;28;20032;-80
2021/03/13 07:27:44;;;;;;;272.40;244.75;;;;;;;;;;5062604;28;20480;-81
2021/03/13 07:30:14;;;;;;;274.23;244.68;;;;;;;;;;5066621;28;20060;-80
2021/03/13 07:32:41;;;;;;;286.15;256.15;;;;;;;;;;5062022;28;20487;-80
2021/03/13 07:35:08;;;;;;;290.55;260.10;;;;;;;;;;5067081;28;20055;-80
2021/03/13 07:37:37;;;;;;;290.38;261.25;;;;;;;;;;5065219;28;20016;-80
2021/03/13 07:40:04;;;;;;;299.02;267.55;;;;;;;;;;5061661;28;20407;-79
2021/03/13 07:42:30;;;;;;;293.80;261.58;;;;;;;;;;5059678;28;20093;-79
2021/03/13 07:44:56;;;;;;;285.08;254.68;;;;;;;;;;5057879;28;20032;-80
2021/03/13 07:47:21;;;;;;;285.10;255.30;;;;;;;;;;5060310;28;20490;-80
2021/03/13 07:49:47;;;;;;;277.42;247.85;;;;;;;;;;5060165;28;20108;-80
2021/03/13 07:52:13;;;;;;;273.33;244.77;;;;;;;;;;5051996;28;20300;-80
2021/03/13 07:54:52;;;;;;;271.08;243.13;;;;;;;;;;5055520;28;20036;-80
2021/03/13 07:57:19;;;;;;;270.35;242.18;;;;;;;;;;5071591;28;20040;-80
2021/03/13 07:59:48;;;;;;;281.58;250.55;;;;;;;;;;5061917;28;20544;-80
2021/03/13 08:02:29;;;;;;;282.08;251.85;;;;;;;;;;5059204;28;20302;-78
2021/03/13 08:04:56;;;;;;;288.05;258.27;;;;;;;;;;5061102;28;20041;-79
2021/03/13 08:07:22;;;;;;;286.63;257.05;;;;;;;;;;5056146;28;20056;-80
2021/03/13 08:09:48;;;;;;;285.08;255.60;;;;;;;;;;5064087;28;20473;-75
2021/03/13 08:12:33;;;;;;;279.25;249.18;;;;;;;;;;5060758;28;20031;-78
2021/03/13 08:14:58;;;;;;;265.27;237.93;;;;;;;;;;5062835;28;20036;-77
2021/03/13 08:17:37;;;;;;;266.27;238.75;;;;;;;;;;5061457;28;20031;-77
2021/03/13 08:20:06;;;;;;;261.98;234.27;;;;;;;;;;5066207;28;20112;-77
2021/03/13 08:22:32;;;;;;;260.00;232.95;;;;;;;;;;5065709;28;20021;-77
2021/03/13 08:24:57;;;;;;;263.58;237.10;;;;;;;;;;5066572;28;20038;-78
2021/03/13 08:27:38;;;;;;;268.33;240.73;;;;;;;;;;5065072;28;20013;-79
2021/03/13 08:30:16;;;;;;;260.40;234.75;;;;;;;;;;5067075;28;20465;-78
2021/03/13 08:32:57;;;;;;;263.55;237.93;;;;;;;;;;5062189;28;20016;-80
2021/03/13 08:35:34;;;;;;;259.80;234.30;;;;;;;;;;5064527;28;20061;-78
2021/03/13 08:38:00;;;;;;;258.38;233.15;;;;;;;;;;5066776;28;20028;-80
2021/03/13 08:40:26;;;;;;;254.27;228.95;;;;;;;;;;5060772;28;20043;-79
2021/03/13 08:42:52;;;;;;;253.45;227.43;;;;;;;;;;5067446;28;20633;-79
2021/03/13 08:45:18;;;;;;;269.05;242.05;;;;;;;;;;5056316;28;20032;-80
2021/03/13 08:47:45;;;;;;;269.38;241.82;;;;;;;;;;5057080;28;20025;-81
2021/03/13 08:50:10;;;;;;;274.17;246.80;;;;;;;;;;5062952;28;20387;-81
2021/03/13 08:52:36;;;;;;;275.88;247.63;;;;;;;;;;5068600;28;20052;-80
2021/03/13 08:55:02;;;;;;;265.80;237.88;;;;;;;;;;5066791;28;20029;-79
2021/03/13 08:57:28;;;;;;;262.25;234.02;;;;;;;;;;5067516;28;20040;-80
2021/03/13 08:59:53;;;;;;;271.30;243.43;;;;;;;;;;5067245;28;20035;-81
2021/03/13 09:02:21;;;;;;;266.08;238.57;;;;;;;;;;5060394;28;20523;-81
2021/03/13 09:04:52;;;;;;;253.43;226.75;;;;;;;;;;5068747;28;20495;-81
2021/03/13 09:07:22;;;;;;;251.57;225.68;;;;;;;;;;5064414;28;20132;-80
2021/03/13 09:09:47;;;;;;;258.52;231.48;;;;;;;;;;5062661;28;20036;-79
2021/03/13 09:12:14;;;;;;;259.98;233.15;;;;;;;;;;5059951;28;20495;-79
2021/03/13 09:14:44;;;;;;;254.70;227.75;;;;;;;;;;5064064;28;20040;-79
2021/03/13 09:17:11;;;;;;;259.67;233.05;;;;;;;;;;5066595;28;20016;-79
2021/03/13 09:19:36;;;;;;;263.60;234.98;;;;;;;;;;5055923;28;20051;-79
2021/03/13 09:22:21;;;;;;;254.80;228.57;;;;;;;;;;5062353;28;20028;-78
2021/03/13 09:24:56;;;;;;;267.55;241.38;;;;;;;;;;5060919;28;20040;-79
2021/03/13 09:27:25;;;;;;;257.48;230.60;;;;;;;;;;5065252;28;20497;-77
2021/03/13 09:29:52;;;;;;;262.52;235.70;;;;;;;;;;5058176;28;20869;-77
2021/03/13 09:32:17;;;;;;;257.80;231.65;;;;;;;;;;5055837;28;20344;-78
2021/03/13 09:34:44;;;;;;;257.83;231.80;;;;;;;;;;5060842;28;20021;-81
2021/03/13 09:37:17;;;;;;;253.77;227.80;;;;;;;;;;5061452;28;20046;-80
2021/03/13 09:39:43;;;;;;;256.42;230.68;;;;;;;;;;5061165;28;20032;-83
2021/03/13 09:42:22;;;;;;;263.15;237.70;;;;;;;;;;5063960;28;20039;-80
2021/03/13 09:44:51;;;;;;;261.08;235.20;;;;;;;;;;5062006;28;20060;-77
2021/03/13 09:47:19;;;;;;;255.80;229.93;;;;;;;;;;5058936;28;20071;-77
2021/03/13 09:49:46;;;;;;;256.52;228.98;;;;;;;;;;5071756;28;20068;-77
2021/03/13 09:52:12;;;;;;;265.10;238.35;;;;;;;;;;5062114;28;20086;-78
2021/03/13 09:54:38;;;;;;;232.02;208.02;;;;;;;;;;5068865;28;20044;-77
2021/03/13 09:57:07;;;;;;;251.93;226.90;;;;;;;;;;5066319;28;20038;-77
2021/03/13 09:59:33;;;;;;;247.63;223.27;;;;;;;;;;5067880;28;20118;-77
2021/03/13 10:01:58;;;;;;;250.77;226.27;;;;;;;;;;5059889;28;20050;-77
2021/03/13 10:04:25;;;;;;;256.77;233.02;;;;;;;;;;5063794;28;20029;-76
2021/03/13 10:06:51;;;;;;;254.35;230.57;;;;;;;;;;5058510;28;20052;-76
2021/03/13 10:09:16;;;;;;;241.60;218.20;;;;;;;;;;5067983;28;20506;-77
2021/03/13 10:11:42;;;;;;;251.05;226.48;;;;;;;;;;5066158;28;20016;-77
2021/03/13 10:14:18;;;;;;;247.95;224.57;;;;;;;;;;5063259;28;20398;-77
2021/03/13 10:16:45;;;;;;;253.68;229.98;;;;;;;;;;5056320;28;20496;-76
2021/03/13 10:19:30;;;;;;;252.32;228.95;;;;;;;;;;5063196;28;20032;-76
2021/03/13 10:22:15;;;;;;;265.33;240.83;;;;;;;;;;5058602;28;20029;-76
2021/03/13 10:24:45;;;;;;;254.52;229.35;;;;;;;;;;5064231;28;20296;-76
2021/03/13 10:27:10;;;;;;;257.40;232.57;;;;;;;;;;5057887;28;20111;-76
2021/03/13 10:29:36;;;;;;;253.75;229.55;;;;;;;;;;5063921;28;20096;-76
2021/03/13 10:32:04;;;;;;;243.25;220.13;;;;;;;;;;5064678;28;20071;-76
2021/03/13 10:34:33;;;;;;;242.65;220.35;;;;;;;;;;5073902;28;20048;-76
2021/03/13 10:36:59;;;;;;;227.98;205.68;;;;;;;;;;5066402;28;20055;-76
2021/03/13 10:39:24;;;;;;;233.05;211.25;;;;;;;;;;5064154;28;20354;-76
2021/03/13 10:41:53;;;;;;;253.52;230.13;;;;;;;;;;5063811;28;20033;-77
2021/03/13 10:44:19;;;;;;;220.23;199.93;;;;;;;;;;5066843;28;20039;-78
2021/03/13 10:46:44;;;;;;;223.30;202.27;;;;;;;;;;5059731;28;20028;-78
2021/03/13 10:49:10;;;;;;;221.85;201.40;;;;;;;;;;5059428;28;20031;-78
2021/03/13 10:51:45;;;;;;;222.13;200.70;;;;;;;;;;5067757;28;20025;-78
2021/03/13 10:54:24;;;;;;;216.73;197.27;;;;;;;;;;5062792;28;20033;-78
2021/03/13 10:56:50;;;;;;;222.38;201.90;;;;;;;;;;5064265;28;20032;-78
2021/03/13 10:59:16;;;;;;;219.00;198.23;;;;;;;;;;5072200;28;20082;-73
2021/03/13 11:01:44;;;;;;;214.38;193.77;;;;;;;;;;5070728;28;20024;-75
2021/03/13 11:04:10;;;;;;;237.40;215.48;;;;;;;;;;5059727;28;20103;-75
2021/03/13 11:06:36;;;;;;;221.15;200.30;;;;;;;;;;5060564;28;20193;-75
2021/03/13 11:09:05;;;;;;;223.75;203.30;;;;;;;;;;5059243;28;20068;-75
2021/03/13 11:11:31;;;;;;;210.88;190.75;;;;;;;;;;5059528;28;20544;-75
2021/03/13 11:13:57;;;;;;;221.55;201.02;;;;;;;;;;5065393;28;20126;-75
2021/03/13 11:16:22;;;;;;;213.48;193.65;;;;;;;;;;5065104;28;20035;-75
2021/03/13 11:18:55;;;;;;;226.05;204.48;;;;;;;;;;5058695;28;20095;-75
2021/03/13 11:21:21;;;;;;;213.65;192.88;;;;;;;;;;5072692;28;20049;-78
2021/03/13 11:23:46;;;;;;;220.15;199.50;;;;;;;;;;5069418;28;20028;-77
2021/03/13 11:26:12;;;;;;;212.23;191.73;;;;;;;;;;5065528;28;20476;-77
2021/03/13 11:28:38;;;;;;;218.50;197.57;;;;;;;;;;5066921;28;20393;-78
2021/03/13 11:31:04;;;;;;;201.80;182.90;;;;;;;;;;5066600;28;20387;-79
2021/03/13 11:33:29;;;;;;;214.38;194.52;;;;;;;;;;5068185;28;20682;-79
2021/03/13 11:35:55;;;;;;;202.88;184.23;;;;;;;;;;5064524;28;20107;-79
2021/03/13 11:38:20;;;;;;;205.00;185.35;;;;;;;;;;5063280;28;20955;-78
2021/03/13 11:40:46;;;;;;;206.65;188.30;;;;;;;;;;5061451;28;20037;-78
2021/03/13 11:43:11;;;;;;;200.95;182.20;;;;;;;;;;5063027;28;20538;-74
2021/03/13 11:45:36;;;;;;;194.38;175.77;;;;;;;;;;5057869;28;20063;-77
2021/03/13 11:48:02;;;;;;;191.65;173.40;;;;;;;;;;5062390;28;20130;-77
2021/03/13 11:50:28;;;;;;;198.50;178.95;;;;;;;;;;5061571;28;20029;-77
2021/03/13 11:52:55;;;;;;;195.00;177.00;;;;;;;;;;5067834;28;20056;-77
2021/03/13 11:55:21;;;;;;;200.48;181.20;;;;;;;;;;5060642;28;20040;-77
2021/03/13 11:57:46;;;;;;;193.65;174.73;;;;;;;;;;5063921;28;20048;-77
2021/03/13 12:00:12;;;;;;;205.13;185.88;;;;;;;;;;5066907;28;20083;-77
2021/03/13 12:02:38;;;;;;;202.75;183.90;;;;;;;;;;5067275;28;20074;-77
2021/03/13 12:05:04;;;;;;;202.02;183.02;;;;;;;;;;5061536;28;20648;-79
2021/03/13 12:07:29;;;;;;;205.02;186.63;;;;;;;;;;5068298;28;20325;-77
2021/03/13 12:09:55;;;;;;;202.90;183.25;;;;;;;;;;5066774;28;20040;-78
2021/03/13 12:12:20;;;;;;;211.23;191.30;;;;;;;;;;5065162;28;20024;-79
2021/03/13 12:14:46;;;;;;;207.20;188.05;;;;;;;;;;5066615;28;20060;-79
2021/03/13 12:17:11;;;;;;;214.68;194.70;;;;;;;;;;5062634;28;20095;-79
2021/03/13 12:19:40;;;;;;;197.43;179.75;;;;;;;;;;5068296;28;20078;-79
2021/03/13 12:22:06;;;;;;;229.73;207.90;;;;;;;;;;5057928;28;20115;-79
2021/03/13 12:24:31;;;;;;;220.13;200.32;;;;;;;;;;5064184;28;20409;-81
2021/03/13 12:26:57;;;;;;;232.77;211.13;;;;;;;;;;5065971;28;20028;-85
2021/03/13 12:29:22;;;;;;;228.82;207.18;;;;;;;;;;5058726;28;20027;-79
2021/03/13 12:31:48;;;;;;;229.63;208.25;;;;;;;;;;5062880;28;20029;-88
2021/03/13 12:34:13;;;;;;;242.10;218.77;;;;;;;;;;5062927;28;20048;-87
2021/03/13 12:36:38;;;;;;;243.95;220.93;;;;;;;;;;5062397;28;20404;-88
2021/03/13 12:39:04;;;;;;;245.18;220.32;;;;;;;;;;5064284;28;20017;-87
2021/03/13 12:41:30;;;;;;;255.95;232.20;;;;;;;;;;5062857;28;20055;-86
2021/03/13 12:43:55;;;;;;;249.23;225.15;;;;;;;;;;5061427;28;20117;-86
2021/03/13 12:46:20;;;;;;;246.75;223.27;;;;;;;;;;5066759;28;20031;-86
2021/03/13 12:48:47;;;;;;;245.50;221.05;;;;;;;;;;5065378;28;20104;-86
2021/03/13 12:51:13;;;;;;;264.00;237.38;;;;;;;;;;5065057;28;20016;-86
2021/03/13 12:53:39;;;;;;;249.45;225.27;;;;;;;;;;5062992;28;20041;-87
2021/03/13 12:56:04;;;;;;;248.52;223.57;;;;;;;;;;5062172;28;20028;-85
2021/03/13 12:58:30;;;;;;;252.00;227.45;;;;;;;;;;5069425;28;20032;-85
2021/03/13 13:00:55;;;;;;;255.57;230.10;;;;;;;;;;5066971;28;20123;-84
2021/03/13 13:03:20;;;;;;;247.77;223.30;;;;;;;;;;5062897;28;20463;-86
2021/03/13 13:05:46;;;;;;;251.88;226.43;;;;;;;;;;5056394;28;20662;-85
2021/03/13 13:08:11;;;;;;;237.18;214.90;;;;;;;;;;5063269;28;20037;-88
2021/03/13 13:10:37;;;;;;;255.48;231.85;;;;;;;;;;5064206;28;20044;-84
2021/03/13 13:13:02;;;;;;;240.88;217.82;;;;;;;;;;5055124;28;20024;-83
2021/03/13 13:15:28;;;;;;;256.40;232.27;;;;;;;;;;5057815;28;20032;-80
2021/03/13 13:17:53;;;;;;;248.82;225.32;;;;;;;;;;5056948;28;20032;-79
2021/03/13 13:20:19;;;;;;;246.85;223.75;;;;;;;;;;5065650;28;20455;-80
2021/03/13 13:22:44;;;;;;;238.88;216.30;;;;;;;;;;5064758;28;20115;-78
2021/03/13 13:25:11;;;;;;;245.60;222.40;;;;;;;;;;5058819;28;20017;-79
2021/03/13 13:27:36;;;;;;;257.45;233.48;;;;;;;;;;5067737;28;20028;-77
2021/03/13 13:30:03;;;;;;;242.50;219.68;;;;;;;;;;5067693;28;20103;-80
2021/03/13 13:32:28;;;;;;;263.92;238.77;;;;;;;;;;5062883;28;20032;-79
2021/03/13 13:34:54;;;;;;;278.65;252.27;;;;;;;;;;5065294;28;20012;-84
2021/03/13 13:37:19;;;;;;;271.95;247.23;;;;;;;;;;5063270;28;20032;-84
2021/03/13 13:39:45;;;;;;;250.45;227.13;;;;;;;;;;5067029;28;20047;-81
2021/03/13 13:42:11;;;;;;;253.93;230.02;;;;;;;;;;5062743;28;20031;-77
2021/03/13 13:44:36;;;;;;;261.30;236.85;;;;;;;;;;5058785;28;20020;-78
2021/03/13 13:47:02;;;;;;;268.85;243.40;;;;;;;;;;5059730;28;20038;-78
2021/03/13 13:49:27;;;;;;;265.80;240.18;;;;;;;;;;5066703;28;20035;-78